Time;durP1;ratioP1;P1;durP2;ratioP2;P2;SDS_P1;SDS_P2;PMS_P1;PMS_P2;Temp;Humidity;BMP_temperature;BMP_pressure;BME280_temperature;BME280_humidity;BME280_pressure;Samples;Min_cycle;Max_cycle;Signal;HPM_P1;HPM_P2
2023/12/20 00:00:25;;;;;;;36.07;16.93;;;;;;;7.47;99.25;101172.31;5054094;28;20698;-71
2023/12/20 00:02:51;;;;;;;34.47;18.00;;;;;;;7.38;99.08;101165.91;5054750;28;20194;-71
2023/12/20 00:05:18;;;;;;;33.03;17.20;;;;;;;7.49;98.83;101163.25;5054375;28;20187;-71
2023/12/20 00:07:44;;;;;;;30.53;15.80;;;;;;;7.41;98.49;101170.13;5054350;28;20190;-71
2023/12/20 00:10:12;;;;;;;32.03;15.13;;;;;;;7.39;98.69;101164.06;5053959;28;20559;-71
2023/12/20 00:12:40;;;;;;;33.27;15.43;;;;;;;7.42;97.75;101170.03;5053863;28;20222;-71
2023/12/20 00:15:07;;;;;;;28.40;13.90;;;;;;;7.37;96.77;101166.88;5054184;28;20253;-71
2023/12/20 00:17:33;;;;;;;24.17;13.77;;;;;;;7.37;97.26;101169.53;5053768;28;20211;-71
2023/12/20 00:20:00;;;;;;;18.83;13.03;;;;;;;7.32;96.86;101171.69;5053843;28;20221;-71
2023/12/20 00:22:26;;;;;;;26.03;12.67;;;;;;;7.23;96.67;101173.25;5054328;28;20609;-71
2023/12/20 00:24:53;;;;;;;25.57;11.47;;;;;;;7.16;96.13;101172.06;5053726;28;20195;-71
2023/12/20 00:27:19;;;;;;;20.93;10.63;;;;;;;7.19;96.17;101182.44;5053705;28;20593;-71
2023/12/20 00:29:49;;;;;;;21.13;10.87;;;;;;;7.16;95.73;101193.31;5053604;28;20268;-71
2023/12/20 00:32:16;;;;;;;15.90;11.67;;;;;;;7.08;95.59;101187.75;5054116;28;20206;-71
2023/12/20 00:34:43;;;;;;;20.33;9.67;;;;;;;7.06;95.35;101194.97;5053560;28;20199;-71
2023/12/20 00:37:09;;;;;;;23.73;11.17;;;;;;;7.05;95.74;101193.28;5053815;28;20198;-71
2023/12/20 00:39:36;;;;;;;19.33;10.10;;;;;;;7.05;95.91;101189.78;5053428;28;20249;-71
2023/12/20 00:42:02;;;;;;;17.30;9.37;;;;;;;7.06;95.84;101192.31;5053431;28;20358;-71
2023/12/20 00:44:29;;;;;;;22.67;10.87;;;;;;;7.06;96.18;101194.13;5053679;28;20192;-71
2023/12/20 00:46:55;;;;;;;25.73;10.60;;;;;;;6.99;96.55;101204.41;5053408;28;20194;-71
2023/12/20 00:49:22;;;;;;;22.47;10.43;;;;;;;7.04;96.72;101212.03;5053687;28;20213;-71
2023/12/20 00:51:50;;;;;;;12.80;10.33;;;;;;;7.06;96.98;101204.75;5053477;28;20235;-71
2023/12/20 00:54:17;;;;;;;25.53;11.27;;;;;;;7.05;97.00;101209.22;5053832;28;20191;-71
2023/12/20 00:56:43;;;;;;;16.10;10.57;;;;;;;7.03;96.61;101207.66;5053234;28;20601;-71
2023/12/20 00:59:10;;;;;;;27.63;10.43;;;;;;;7.01;96.83;101201.59;5053169;28;20620;-71
2023/12/20 01:01:37;;;;;;;22.30;10.23;;;;;;;7.03;96.39;101207.66;5053738;28;20519;-71
2023/12/20 01:04:03;;;;;;;20.57;10.10;;;;;;;7.01;96.48;101194.47;5053446;28;20225;-71
2023/12/20 01:06:30;;;;;;;22.50;10.53;;;;;;;6.98;96.45;101197.38;5053170;28;20224;-71
2023/12/20 01:08:57;;;;;;;14.47;9.30;;;;;;;7.01;96.59;101193.63;5053162;28;20211;-71
2023/12/20 01:11:23;;;;;;;19.43;9.60;;;;;;;7.01;96.20;101199.78;5051963;28;20254;-71
2023/12/20 01:13:50;;;;;;;22.53;11.17;;;;;;;6.94;96.15;101211.03;5053262;28;20240;-71
2023/12/20 01:16:16;;;;;;;18.93;10.13;;;;;;;6.92;96.14;101213.78;5053559;28;20236;-71
2023/12/20 01:18:42;;;;;;;14.47;10.10;;;;;;;6.98;95.91;101210.66;5053047;28;20605;-71
2023/12/20 01:21:09;;;;;;;21.50;10.20;;;;;;;6.94;95.41;101211.03;5052930;28;20237;-71
2023/12/20 01:23:35;;;;;;;10.50;8.27;;;;;;;6.91;95.07;101228.06;5053435;28;20194;-71
2023/12/20 01:26:05;;;;;;;16.30;9.50;;;;;;;6.89;95.12;101224.66;5053694;28;20188;-71
2023/12/20 01:28:31;;;;;;;15.37;9.10;;;;;;;6.91;94.79;101230.72;5052814;28;20281;-71
2023/12/20 01:30:58;;;;;;;16.00;8.40;;;;;;;6.87;94.15;101221.28;5052895;28;20187;-71
2023/12/20 01:33:24;;;;;;;16.07;8.30;;;;;;;6.80;93.55;101212.91;5052795;28;20207;-71
2023/12/20 01:35:51;;;;;;;12.63;8.07;;;;;;;6.76;93.75;101216.75;5052849;28;20192;-71
2023/12/20 01:38:20;;;;;;;16.27;7.93;;;;;;;6.70;93.70;101217.25;5052831;28;20240;-71
2023/12/20 01:40:47;;;;;;;15.40;8.17;;;;;;;6.64;93.71;101230.97;5052730;28;20268;-71
2023/12/20 01:43:13;;;;;;;22.67;8.20;;;;;;;6.60;94.03;101226.00;5052817;28;20550;-71
2023/12/20 01:45:40;;;;;;;20.40;7.77;;;;;;;6.57;93.54;101228.88;5053341;28;20522;-71
2023/12/20 01:48:07;;;;;;;8.30;7.53;;;;;;;6.51;94.24;101224.00;5053249;28;20190;-71
2023/12/20 01:50:36;;;;;;;19.13;8.20;;;;;;;6.56;94.18;101219.22;5052932;28;20246;-71
2023/12/20 01:53:05;;;;;;;12.60;8.00;;;;;;;6.54;93.59;101218.47;5052618;28;20247;-71
2023/12/20 01:55:34;;;;;;;19.03;7.50;;;;;;;6.51;93.60;101218.69;5052714;28;20183;-71
2023/12/20 01:58:01;;;;;;;8.87;6.40;;;;;;;6.50;93.41;101217.00;5052697;28;20240;-71
2023/12/20 02:00:29;;;;;;;7.37;6.67;;;;;;;6.48;93.84;101221.59;5052592;28;20393;-71
2023/12/20 02:02:55;;;;;;;18.30;7.33;;;;;;;6.48;93.93;101218.94;5053146;28;20236;-71
2023/12/20 02:05:22;;;;;;;25.30;7.83;;;;;;;6.41;94.47;101218.53;5052605;28;20249;-71
2023/12/20 02:07:49;;;;;;;14.97;7.70;;;;;;;6.33;94.19;101221.75;5052611;28;20179;-71
2023/12/20 02:10:16;;;;;;;20.43;7.97;;;;;;;6.34;94.27;101223.44;5052508;28;20268;-71
2023/12/20 02:12:43;;;;;;;19.33;7.40;;;;;;;6.29;94.59;101222.94;5052991;28;20253;-71
2023/12/20 02:15:09;;;;;;;11.07;7.33;;;;;;;6.27;94.92;101222.22;5052490;28;20198;-71
2023/12/20 02:17:36;;;;;;;23.63;7.63;;;;;;;6.32;94.81;101225.34;5052483;28;20206;-71
2023/12/20 02:20:03;;;;;;;13.93;7.60;;;;;;;6.33;95.14;101215.59;5053069;28;20219;-70
2023/12/20 02:22:29;;;;;;;17.97;8.03;;;;;;;6.35;94.64;101216.34;5056609;28;20573;-70
2023/12/20 02:24:56;;;;;;;10.90;8.00;;;;;;;6.36;94.46;101210.94;5056043;28;20197;-70
2023/12/20 02:27:22;;;;;;;18.93;7.43;;;;;;;6.33;94.58;101207.63;5056236;28;20198;-70
2023/12/20 02:29:50;;;;;;;11.13;6.53;;;;;;;6.33;94.61;101215.59;5055878;28;20207;-71
2023/12/20 02:32:18;;;;;;;12.13;7.87;;;;;;;6.29;94.36;101214.97;5055835;28;20667;-71
2023/12/20 02:34:47;;;;;;;19.83;7.50;;;;;;;6.34;94.34;101217.28;5056103;28;20195;-71
2023/12/20 02:37:14;;;;;;;10.73;7.23;;;;;;;6.34;94.30;101217.28;5055788;28;20195;-71
2023/12/20 02:39:41;;;;;;;17.50;7.87;;;;;;;6.33;94.04;101221.75;5056139;28;20211;-71
2023/12/20 02:42:08;;;;;;;23.30;7.63;;;;;;;6.31;94.35;101228.16;5055582;28;20190;-71
2023/12/20 02:44:34;;;;;;;17.07;7.97;;;;;;;6.31;93.92;101217.53;5056244;28;20188;-70
2023/12/20 02:47:01;;;;;;;15.97;8.00;;;;;;;6.26;94.47;101215.19;5055595;28;20191;-70
2023/12/20 02:49:27;;;;;;;13.37;8.20;;;;;;;6.21;94.34;101212.03;5056323;28;20267;-71
2023/12/20 02:51:54;;;;;;;28.57;10.57;;;;;;;6.17;94.61;101212.38;5055734;28;20290;-71
2023/12/20 02:54:20;;;;;;;14.77;9.20;;;;;;;6.12;94.48;101222.47;5055461;28;20187;-71
2023/12/20 02:56:47;;;;;;;14.83;9.60;;;;;;;6.05;95.13;101219.41;5055435;28;20244;-71
2023/12/20 02:59:14;;;;;;;28.00;10.00;;;;;;;6.08;94.96;101216.53;5055347;28;20261;-71
2023/12/20 03:01:45;;;;;;;14.43;9.27;;;;;;;6.05;94.84;101229.19;5055353;28;20257;-71
2023/12/20 03:04:12;;;;;;;28.23;10.40;;;;;;;6.02;95.00;101230.25;5055887;28;20527;-71
2023/12/20 03:06:39;;;;;;;20.30;10.37;;;;;;;6.05;94.70;101224.72;5055558;28;20648;-71
2023/12/20 03:09:05;;;;;;;25.87;10.40;;;;;;;6.04;94.71;101230.13;5055546;28;20207;-71
2023/12/20 03:11:32;;;;;;;19.37;10.47;;;;;;;6.05;94.44;101226.53;5055083;28;20185;-71
2023/12/20 03:13:58;;;;;;;20.13;9.33;;;;;;;6.06;94.41;101222.91;5055850;28;20589;-71
2023/12/20 03:16:24;;;;;;;21.33;10.27;;;;;;;6.06;93.76;101221.13;5055652;28;20179;-71
2023/12/20 03:18:51;;;;;;;23.60;11.00;;;;;;;6.05;93.72;101216.75;5055187;28;20753;-71
2023/12/20 03:21:17;;;;;;;37.27;11.00;;;;;;;6.03;93.45;101217.81;5055295;28;20175;-71
2023/12/20 03:23:45;;;;;;;29.50;9.60;;;;;;;5.99;93.85;101211.88;5054933;28;20189;-71
2023/12/20 03:26:11;;;;;;;19.63;11.20;;;;;;;5.98;94.04;101218.16;5054869;28;20192;-71
2023/12/20 03:28:38;;;;;;;28.20;9.17;;;;;;;5.93;94.10;101215.84;5055272;28;20179;-71
2023/12/20 03:31:04;;;;;;;27.13;9.30;;;;;;;5.93;93.92;101218.50;5054597;28;20202;-71
2023/12/20 03:33:31;;;;;;;24.43;8.70;;;;;;;5.92;93.58;101218.59;5054581;28;20263;-70
2023/12/20 03:35:57;;;;;;;25.87;8.60;;;;;;;5.87;93.53;101212.75;5054979;28;20647;-70
2023/12/20 03:38:24;;;;;;;19.47;8.77;;;;;;;5.84;94.04;101212.97;5054659;28;20212;-70
2023/12/20 03:40:50;;;;;;;12.07;7.77;;;;;;;5.81;94.20;101214.00;5054845;28;20187;-70
2023/12/20 03:43:17;;;;;;;19.97;7.80;;;;;;;5.76;94.05;101205.56;5054550;28;20181;-70
2023/12/20 03:45:43;;;;;;;17.00;7.10;;;;;;;5.75;93.90;101206.50;5054501;28;20370;-70
2023/12/20 03:48:10;;;;;;;16.93;7.33;;;;;;;5.77;93.77;101217.03;5054490;28;20250;-70
2023/12/20 03:50:36;;;;;;;21.20;7.83;;;;;;;5.70;93.90;101205.13;5055345;28;20241;-71
2023/12/20 03:53:03;;;;;;;22.50;7.63;;;;;;;5.72;94.03;101213.84;5054317;28;20214;-70
2023/12/20 03:55:30;;;;;;;18.00;7.73;;;;;;;5.67;94.41;101215.97;5054324;28;20187;-70
2023/12/20 03:57:56;;;;;;;17.37;7.60;;;;;;;5.72;94.26;101227.97;5054293;28;20180;-70
2023/12/20 04:00:23;;;;;;;13.50;6.97;;;;;;;5.73;94.18;101232.28;5054479;28;20574;-70
2023/12/20 04:02:49;;;;;;;14.53;6.70;;;;;;;5.71;94.45;101228.91;5054668;28;20182;-70
2023/12/20 04:05:16;;;;;;;12.73;6.60;;;;;;;5.75;94.68;101213.63;5054139;28;20244;-70
2023/12/20 04:07:42;;;;;;;15.73;6.93;;;;;;;5.76;94.85;101204.72;5054078;28;20187;-70
2023/12/20 04:10:09;;;;;;;9.23;6.67;;;;;;;5.79;94.72;101200.03;5053979;28;20210;-71
2023/12/20 04:12:36;;;;;;;21.40;6.83;;;;;;;5.76;94.63;101200.25;5053917;28;20605;-70
2023/12/20 04:15:08;;;;;;;12.73;7.27;;;;;;;5.76;94.66;101202.91;5054409;28;20195;-70
2023/12/20 04:17:36;;;;;;;16.57;7.57;;;;;;;5.76;95.12;101194.09;5053920;28;20195;-70
2023/12/20 04:20:03;;;;;;;12.80;7.53;;;;;;;5.79;95.26;101193.88;5054092;28;20233;-70
2023/12/20 04:22:30;;;;;;;14.13;7.03;;;;;;;5.82;95.13;101197.13;5053784;28;20180;-70
2023/12/20 04:24:56;;;;;;;20.53;7.20;;;;;;;5.79;95.15;101197.38;5053758;28;20183;-70
2023/12/20 04:27:23;;;;;;;14.97;8.23;;;;;;;5.79;94.81;101200.03;5053750;28;20548;-70
2023/12/20 04:29:49;;;;;;;26.70;8.80;;;;;;;5.77;94.89;101201.91;5053610;28;20337;-70
2023/12/20 04:32:15;;;;;;;30.30;8.50;;;;;;;5.75;95.04;101205.66;5053586;28;20229;-70
2023/12/20 04:34:42;;;;;;;19.43;9.40;;;;;;;5.75;94.82;101203.00;5054183;28;20603;-70
2023/12/20 04:37:08;;;;;;;20.67;9.27;;;;;;;5.75;94.96;101209.16;5053549;28;20191;-70
2023/12/20 04:39:35;;;;;;;19.87;8.90;;;;;;;5.75;94.81;101213.63;5053725;28;20260;-70
2023/12/20 04:42:02;;;;;;;12.70;9.53;;;;;;;5.74;95.41;101201.28;5053535;28;20193;-71
2023/12/20 04:44:28;;;;;;;27.67;11.10;;;;;;;5.77;95.04;101209.88;5053410;28;20191;-70
2023/12/20 04:46:56;;;;;;;20.07;9.97;;;;;;;5.77;94.83;101212.53;5053673;28;20241;-70
2023/12/20 04:49:22;;;;;;;16.50;9.37;;;;;;;5.76;95.04;101210.88;5053641;28;20619;-71
2023/12/20 04:51:49;;;;;;;14.87;9.13;;;;;;;5.76;95.09;101215.31;5053305;28;20670;-70
2023/12/20 04:54:15;;;;;;;16.07;9.00;;;;;;;5.77;94.87;101217.03;5053461;28;20203;-70
2023/12/20 04:56:42;;;;;;;23.47;8.43;;;;;;;5.73;95.21;101216.38;5053255;28;20660;-70
2023/12/20 04:59:08;;;;;;;19.20;9.77;;;;;;;5.67;94.68;101215.97;5053164;28;20206;-71
2023/12/20 05:01:35;;;;;;;17.13;8.57;;;;;;;5.68;94.59;101212.38;5053194;28;20593;-71
2023/12/20 05:04:01;;;;;;;16.77;8.07;;;;;;;5.68;94.83;101218.53;5053179;28;20193;-71
2023/12/20 05:06:27;;;;;;;25.53;9.90;;;;;;;5.67;94.75;101215.97;5053134;28;20187;-70
2023/12/20 05:08:54;;;;;;;22.63;9.97;;;;;;;5.68;94.83;101217.66;5053245;28;20691;-70
2023/12/20 05:11:20;;;;;;;15.83;9.27;;;;;;;5.67;94.39;101208.00;5053379;28;20193;-70
2023/12/20 05:13:47;;;;;;;18.17;9.03;;;;;;;5.69;94.40;101203.41;5052973;28;20207;-70
2023/12/20 05:16:17;;;;;;;20.97;10.03;;;;;;;5.68;94.65;101217.66;5053289;28;20546;-70
2023/12/20 05:18:45;;;;;;;23.87;9.83;;;;;;;5.72;94.41;101213.84;5053162;28;20208;-70
2023/12/20 05:21:12;;;;;;;19.77;8.90;;;;;;;5.73;94.88;101228.81;5052976;28;20278;-70
2023/12/20 05:23:38;;;;;;;20.50;9.10;;;;;;;5.76;94.62;101221.47;5052964;28;20209;-70
2023/12/20 05:26:05;;;;;;;33.60;10.33;;;;;;;5.80;94.80;101207.03;5053684;28;20179;-70
2023/12/20 05:28:31;;;;;;;18.57;9.87;;;;;;;5.78;94.51;101213.38;5052805;28;20194;-71
2023/12/20 05:30:58;;;;;;;27.53;10.73;;;;;;;5.79;94.53;101202.69;5051740;28;20192;-70
2023/12/20 05:33:25;;;;;;;14.93;9.40;;;;;;;5.79;94.50;101199.16;5053045;28;20214;-70
2023/12/20 05:35:51;;;;;;;36.17;9.83;;;;;;;5.76;94.96;101189.63;5052925;28;20190;-70
2023/12/20 05:38:18;;;;;;;38.00;9.80;;;;;;;5.80;94.65;101195.56;5053097;28;20712;-70
2023/12/20 05:40:44;;;;;;;18.03;9.77;;;;;;;5.75;93.71;101200.34;5053285;28;20207;-70
2023/12/20 05:43:10;;;;;;;19.97;9.40;;;;;;;5.79;94.07;101204.47;5052827;28;20241;-70
2023/12/20 05:45:37;;;;;;;20.07;9.27;;;;;;;5.81;94.37;101202.56;5053096;28;20180;-71
2023/12/20 05:48:04;;;;;;;27.27;9.33;;;;;;;5.80;94.04;101195.56;5052746;28;20229;-71
2023/12/20 05:50:30;;;;;;;25.63;9.67;;;;;;;5.81;94.40;101203.41;5052957;28;20198;-70
2023/12/20 05:52:57;;;;;;;23.33;9.33;;;;;;;5.78;94.38;101206.28;5052714;28;20209;-70
2023/12/20 05:55:23;;;;;;;15.83;8.77;;;;;;;5.78;94.12;101197.47;5054847;28;20625;-70
2023/12/20 05:57:50;;;;;;;32.13;10.23;;;;;;;5.82;93.90;101188.34;5056877;28;20730;-70
2023/12/20 06:00:17;;;;;;;22.57;10.57;;;;;;;5.79;94.29;101194.72;5056566;28;20219;-71
2023/12/20 06:02:43;;;;;;;28.83;9.50;;;;;;;5.81;93.84;101192.78;5057056;28;20185;-70
2023/12/20 06:05:10;;;;;;;41.73;10.20;;;;;;;5.81;94.20;101195.44;5057210;28;20228;-72
2023/12/20 06:07:36;;;;;;;19.67;9.17;;;;;;;5.84;93.71;101195.25;5056893;28;20269;-72
2023/12/20 06:10:03;;;;;;;26.03;10.13;;;;;;;5.78;94.11;101200.97;5056430;28;20209;-73
2023/12/20 06:12:32;;;;;;;24.40;9.90;;;;;;;5.85;93.95;101194.28;5056570;28;20578;-70
2023/12/20 06:14:58;;;;;;;18.60;9.27;;;;;;;5.82;93.67;101196.28;5056543;28;20172;-71
2023/12/20 06:17:24;;;;;;;22.40;9.13;;;;;;;5.86;93.85;101200.41;5056417;28;20582;-70
2023/12/20 06:19:51;;;;;;;21.77;9.00;;;;;;;5.83;93.92;101193.53;5056229;28;20207;-70
2023/12/20 06:22:18;;;;;;;24.20;8.20;;;;;;;5.84;94.30;101195.25;5056400;28;20552;-70
2023/12/20 06:24:44;;;;;;;22.87;8.70;;;;;;;5.87;93.52;101197.69;5056320;28;20221;-70
2023/12/20 06:27:11;;;;;;;27.77;9.73;;;;;;;5.85;93.49;101204.91;5056077;28;20171;-70
2023/12/20 06:29:38;;;;;;;25.07;10.50;;;;;;;5.88;93.83;101203.84;5056002;28;20207;-71
2023/12/20 06:32:04;;;;;;;25.73;10.30;;;;;;;5.83;94.25;101204.16;5056483;28;20685;-72
2023/12/20 06:34:31;;;;;;;22.83;9.63;;;;;;;5.89;93.88;101203.75;5055735;28;20704;-71
2023/12/20 06:36:57;;;;;;;18.57;8.97;;;;;;;5.86;93.80;101200.41;5055816;28;20249;-71
2023/12/20 06:39:24;;;;;;;25.47;10.20;;;;;;;5.87;93.27;101207.47;5055727;28;20218;-72
2023/12/20 06:41:51;;;;;;;29.97;10.40;;;;;;;5.80;93.41;101212.34;5055978;28;20536;-71
2023/12/20 06:44:17;;;;;;;27.13;10.63;;;;;;;5.88;93.34;101210.00;5055876;28;20180;-71
2023/12/20 06:46:44;;;;;;;22.77;10.47;;;;;;;5.88;93.34;101198.56;5055907;28;20185;-71
2023/12/20 06:49:10;;;;;;;26.80;11.20;;;;;;;5.94;93.38;101201.59;5055841;28;20207;-71
2023/12/20 06:51:37;;;;;;;27.47;10.73;;;;;;;5.92;93.70;101203.53;5055874;28;20182;-71
2023/12/20 06:54:03;;;;;;;33.63;10.53;;;;;;;5.92;93.02;101202.69;5054213;28;20207;-71
2023/12/20 06:56:30;;;;;;;19.10;10.30;;;;;;;5.97;92.97;101204.06;5055714;28;20183;-71
2023/12/20 06:58:56;;;;;;;29.00;10.47;;;;;;;5.92;92.78;101208.84;5055367;28;20761;-71
2023/12/20 07:01:23;;;;;;;30.63;10.73;;;;;;;5.93;93.16;101201.72;5055923;28;20171;-71
2023/12/20 07:03:49;;;;;;;23.97;9.97;;;;;;;5.92;93.24;101194.72;5055860;28;20241;-71
2023/12/20 07:06:16;;;;;;;21.27;10.17;;;;;;;5.94;92.96;101188.31;5054183;28;20232;-71
2023/12/20 07:08:44;;;;;;;27.13;10.63;;;;;;;5.98;92.94;101191.63;5055737;28;20537;-72
2023/12/20 07:11:11;;;;;;;19.67;10.57;;;;;;;6.02;92.57;101187.78;5055471;28;20176;-71
2023/12/20 07:13:37;;;;;;;28.37;9.77;;;;;;;6.08;92.46;101191.78;5055375;28;20191;-71
2023/12/20 07:16:04;;;;;;;22.13;11.13;;;;;;;6.04;91.99;101192.97;5055340;28;20623;-71
2023/12/20 07:18:30;;;;;;;31.37;10.83;;;;;;;6.08;92.46;101192.66;5054783;28;20205;-72
2023/12/20 07:20:57;;;;;;;29.00;11.50;;;;;;;6.06;92.33;101191.06;5055477;28;20279;-71
2023/12/20 07:23:23;;;;;;;29.87;10.77;;;;;;;6.06;92.02;101191.94;5053179;28;20229;-72
2023/12/20 07:25:50;;;;;;;20.37;11.03;;;;;;;6.07;92.43;101201.56;5072957;28;20240;-71
2023/12/20 07:28:16;;;;;;;29.90;11.50;;;;;;;6.06;92.51;101202.53;5073564;28;20215;-71
2023/12/20 07:30:43;;;;;;;33.97;11.53;;;;;;;6.11;92.54;101197.72;5074991;28;20210;-71
2023/12/20 07:33:10;;;;;;;23.23;11.13;;;;;;;6.12;91.84;101207.38;5073382;28;20210;-71
2023/12/20 07:35:36;;;;;;;27.60;10.20;;;;;;;6.13;92.29;101198.47;5075193;28;20216;-71
2023/12/20 07:38:03;;;;;;;24.70;10.70;;;;;;;6.19;92.24;101195.38;5074605;28;20175;-71
2023/12/20 07:40:30;;;;;;;25.57;10.73;;;;;;;6.19;91.89;101194.53;5074561;28;20214;-71
2023/12/20 07:42:58;;;;;;;21.97;10.10;;;;;;;6.19;91.68;101198.03;5075062;28;20236;-71
2023/12/20 07:45:24;;;;;;;30.63;10.80;;;;;;;6.14;91.65;101202.81;5074769;28;20205;-71
2023/12/20 07:47:50;;;;;;;26.30;9.30;;;;;;;6.17;91.76;101193.78;5074709;28;20186;-71
2023/12/20 07:50:17;;;;;;;19.90;8.63;;;;;;;6.21;91.39;101205.88;5074436;28;20215;-71
2023/12/20 07:52:43;;;;;;;22.97;10.30;;;;;;;6.22;91.20;101208.41;5074948;28;20185;-71
2023/12/20 07:55:10;;;;;;;24.93;10.40;;;;;;;6.22;91.47;101203.13;5074728;28;20204;-71
2023/12/20 07:57:37;;;;;;;24.03;9.33;;;;;;;6.27;91.21;101216.06;5074259;28;20214;-71
2023/12/20 08:00:05;;;;;;;22.27;9.63;;;;;;;6.29;91.54;101209.66;5074592;28;20226;-71
2023/12/20 08:02:31;;;;;;;27.93;9.70;;;;;;;6.29;90.79;101187.56;5074475;28;20183;-71
2023/12/20 08:04:58;;;;;;;17.43;8.43;;;;;;;6.34;90.29;101191.59;5074088;28;20179;-71
2023/12/20 08:07:24;;;;;;;19.53;9.30;;;;;;;6.31;90.23;101190.97;5074314;28;20193;-71
2023/12/20 08:09:51;;;;;;;12.53;8.67;;;;;;;6.32;90.36;101179.41;5074029;28;20557;-71
2023/12/20 08:12:18;;;;;;;29.10;9.63;;;;;;;6.33;90.46;101189.88;5073903;28;20193;-71
2023/12/20 08:14:44;;;;;;;17.80;9.50;;;;;;;6.39;90.42;101188.59;5074104;28;20289;-71
2023/12/20 08:17:12;;;;;;;20.40;8.80;;;;;;;6.37;90.80;101195.81;5073590;28;20198;-71
2023/12/20 08:19:38;;;;;;;27.90;9.30;;;;;;;6.35;90.74;101187.13;5073666;28;20210;-71
2023/12/20 08:22:05;;;;;;;31.97;9.13;;;;;;;6.36;90.78;101183.53;5073744;28;20221;-71
2023/12/20 08:24:32;;;;;;;21.63;8.47;;;;;;;6.36;90.48;101192.34;5073755;28;20186;-71
2023/12/20 08:26:58;;;;;;;20.80;9.60;;;;;;;6.35;90.27;101200.41;5073994;28;20185;-71
2023/12/20 08:29:24;;;;;;;25.80;10.17;;;;;;;6.43;90.44;101195.38;5073866;28;20578;-71
2023/12/20 08:31:55;;;;;;;24.73;10.27;;;;;;;6.45;90.57;101187.31;5074183;28;20171;-71
2023/12/20 08:34:23;;;;;;;22.17;9.20;;;;;;;6.45;89.87;101198.75;5073532;28;20616;-71
2023/12/20 08:36:51;;;;;;;33.27;10.53;;;;;;;6.47;89.96;101199.50;5073760;28;20194;-71
2023/12/20 08:39:17;;;;;;;37.23;9.73;;;;;;;6.46;90.15;101203.09;5073652;28;20554;-71
2023/12/20 08:41:44;;;;;;;12.47;9.07;;;;;;;6.47;89.38;101202.16;5073437;28;20210;-71
2023/12/20 08:44:10;;;;;;;22.47;10.63;;;;;;;6.46;89.68;101204.91;5073420;28;20681;-71
2023/12/20 08:46:37;;;;;;;21.70;8.37;;;;;;;6.47;89.52;101207.47;5073662;28;20550;-71
2023/12/20 08:49:03;;;;;;;25.77;9.00;;;;;;;6.46;89.75;101203.09;5073282;28;20210;-71
2023/12/20 08:51:30;;;;;;;24.10;7.97;;;;;;;6.47;89.40;101198.66;5073691;28;20179;-71
2023/12/20 08:53:56;;;;;;;34.87;9.17;;;;;;;6.51;89.42;101198.31;5073144;28;20224;-71
2023/12/20 08:56:23;;;;;;;27.00;9.30;;;;;;;6.50;89.60;101198.41;5073791;28;20190;-71
2023/12/20 08:58:49;;;;;;;14.83;7.93;;;;;;;6.44;88.84;101194.41;5073457;28;20214;-72
2023/12/20 09:01:16;;;;;;;25.77;8.67;;;;;;;6.51;89.23;101186.84;5073229;28;20232;-71
2023/12/20 09:03:43;;;;;;;25.13;8.87;;;;;;;6.49;89.02;101192.28;5073176;28;20182;-71
2023/12/20 09:06:10;;;;;;;45.17;9.17;;;;;;;6.46;88.51;101191.63;5073433;28;20182;-71
2023/12/20 09:08:36;;;;;;;19.40;8.03;;;;;;;6.52;88.85;101184.06;5073557;28;20284;-71
2023/12/20 09:11:03;;;;;;;19.00;8.50;;;;;;;6.50;88.89;101182.47;5073138;28;20247;-71
2023/12/20 09:13:31;;;;;;;15.70;7.97;;;;;;;6.49;89.28;101188.78;5073018;28;20216;-71
2023/12/20 09:15:58;;;;;;;20.43;7.80;;;;;;;6.55;88.98;101177.66;5073076;28;20797;-70
2023/12/20 09:18:25;;;;;;;15.37;8.43;;;;;;;6.54;88.98;101174.16;5073016;28;20564;-70
2023/12/20 09:20:51;;;;;;;32.83;8.30;;;;;;;6.52;88.99;101173.44;5073002;28;20178;-71
2023/12/20 09:23:18;;;;;;;14.33;8.40;;;;;;;6.53;88.24;101176.94;5073252;28;20186;-71
2023/12/20 09:25:44;;;;;;;13.83;7.83;;;;;;;6.61;88.56;101188.69;5071919;28;20282;-71
2023/12/20 09:28:11;;;;;;;18.93;8.20;;;;;;;6.58;88.16;101174.78;5073273;28;20647;-71
2023/12/20 09:30:39;;;;;;;11.00;6.83;;;;;;;6.60;88.04;101178.19;5074717;28;20212;-71
2023/12/20 09:33:07;;;;;;;23.23;6.93;;;;;;;6.62;88.29;101181.59;5077042;28;20602;-71
2023/12/20 09:35:34;;;;;;;31.93;8.50;;;;;;;6.61;87.76;101169.25;5077041;28;20206;-71
2023/12/20 09:38:00;;;;;;;22.57;7.67;;;;;;;6.65;87.68;101165.41;5076873;28;20225;-71
2023/12/20 09:40:28;;;;;;;27.63;7.87;;;;;;;6.68;87.73;101173.13;5076908;28;20213;-71
2023/12/20 09:43:03;;;;;;;29.70;8.17;;;;;;;6.67;87.96;101174.94;5076757;28;20659;-71
2023/12/20 09:45:31;;;;;;;15.23;8.43;;;;;;;6.68;88.01;101173.13;5077161;28;20533;-71
2023/12/20 09:47:58;;;;;;;19.03;8.43;;;;;;;6.62;87.78;101184.25;5077281;28;20642;-71
2023/12/20 09:50:25;;;;;;;21.37;8.33;;;;;;;6.63;88.11;101172.63;5076650;28;20209;-71
2023/12/20 09:52:53;;;;;;;15.53;8.53;;;;;;;6.60;88.34;101183.50;5077365;28;20193;-71
2023/12/20 09:55:21;;;;;;;22.43;8.03;;;;;;;6.62;88.56;101179.75;5076749;28;20305;-70
2023/12/20 09:57:48;;;;;;;17.03;8.00;;;;;;;6.68;88.30;101175.78;5076885;28;20171;-70
2023/12/20 10:00:17;;;;;;;14.67;7.43;;;;;;;6.65;88.14;101178.69;5076607;28;20217;-70
2023/12/20 10:02:58;;;;;;;17.17;7.53;;;;;;;6.64;88.26;101182.28;5076706;28;20182;-70
2023/12/20 10:05:32;;;;;;;20.20;8.47;;;;;;;6.66;88.20;101189.19;5076829;28;20212;-70
2023/12/20 10:08:00;;;;;;;13.83;7.37;;;;;;;6.62;87.78;101186.91;5076980;28;20175;-70
2023/12/20 10:10:27;;;;;;;15.33;7.63;;;;;;;6.63;88.48;101177.94;5076265;28;20221;-70
2023/12/20 10:13:10;;;;;;;14.83;7.30;;;;;;;6.66;89.02;101181.22;5076369;28;20171;-70
2023/12/20 10:15:38;;;;;;;17.13;7.83;;;;;;;6.60;89.67;101180.84;5076416;28;20604;-70
2023/12/20 10:18:05;;;;;;;18.80;8.27;;;;;;;6.59;89.55;101176.47;5076102;28;20281;-70
2023/12/20 10:20:32;;;;;;;15.57;8.43;;;;;;;6.58;90.32;101169.47;5076130;28;20229;-70
2023/12/20 10:23:00;;;;;;;15.60;7.63;;;;;;;6.52;90.50;101169.94;5076610;28;20182;-70
2023/12/20 10:25:27;;;;;;;19.13;7.93;;;;;;;6.62;90.81;101165.63;5076560;28;20210;-70
2023/12/20 10:28:21;;;;;;;14.37;7.70;;;;;;;6.56;90.47;101166.09;5076257;28;20658;-70
2023/12/20 10:30:47;;;;;;;29.83;8.50;;;;;;;6.59;90.27;101155.22;5075873;28;20209;-70
2023/12/20 10:33:25;;;;;;;27.47;10.00;;;;;;;6.56;89.90;101156.31;5076165;28;20225;-70
2023/12/20 10:35:53;;;;;;;31.57;8.70;;;;;;;6.54;90.10;101155.56;5076361;28;20650;-70
2023/12/20 10:38:20;;;;;;;38.53;8.83;;;;;;;6.58;89.97;101140.25;5075817;28;20195;-70
2023/12/20 10:40:46;;;;;;;18.70;9.20;;;;;;;6.61;89.65;101148.84;5075126;28;20222;-70
2023/12/20 10:43:14;;;;;;;20.27;8.13;;;;;;;6.62;89.88;101158.50;5076283;28;20202;-71
2023/12/20 10:45:43;;;;;;;20.47;8.30;;;;;;;6.62;90.37;101145.22;5075694;28;20186;-70
2023/12/20 10:48:11;;;;;;;23.90;8.13;;;;;;;6.69;89.86;101154.44;5075633;28;20201;-70
2023/12/20 10:50:40;;;;;;;22.80;9.53;;;;;;;6.67;89.92;101140.41;5074570;28;20217;-70
2023/12/20 10:53:07;;;;;;;33.20;9.53;;;;;;;6.73;90.04;101139.09;5075632;28;20190;-70
2023/12/20 10:55:34;;;;;;;33.50;9.87;;;;;;;6.67;89.77;101140.41;5076006;28;20206;-70
2023/12/20 10:58:06;;;;;;;20.50;8.63;;;;;;;6.72;90.00;101135.59;5075705;28;20214;-70
2023/12/20 11:00:38;;;;;;;16.47;8.73;;;;;;;6.71;89.70;101152.47;5075908;28;20604;-70
2023/12/20 11:03:08;;;;;;;15.63;8.57;;;;;;;6.76;90.26;101152.13;5075370;28;20212;-70
2023/12/20 11:05:55;;;;;;;18.97;8.50;;;;;;;6.79;89.58;101158.06;5075859;28;20550;-70
2023/12/20 11:08:33;;;;;;;13.50;8.87;;;;;;;6.79;89.32;101155.41;5075570;28;20167;-70
2023/12/20 11:11:13;;;;;;;19.90;8.67;;;;;;;6.99;89.73;101148.56;5075513;28;20181;-70
2023/12/20 11:13:47;;;;;;;16.40;7.93;;;;;;;6.96;88.75;101145.31;5075148;28;20637;-70
2023/12/20 11:16:14;;;;;;;13.50;8.60;;;;;;;6.92;89.13;101147.34;5073918;28;20197;-70
2023/12/20 11:18:41;;;;;;;16.47;8.33;;;;;;;7.04;89.07;101151.75;5074960;28;20700;-70
2023/12/20 11:21:07;;;;;;;25.20;8.77;;;;;;;6.95;89.25;101144.47;5075287;28;20273;-70